Airdrie, Canada
Current Conditions -  °F | °C
As of 10:32 PM on Thursday 27 Nov 2014 (Local Time) from CYYC Reporting Station
Light Snow Light Snow  
Wind Chill: -8°   Ceiling: 1500
Heat Index:   Visibility: 3mi
Dew Point:   Wind: 10mph
Humidity: 85%   Direction: 360°N
Pressure: 29.67"   Gusts: NA
Location:  51.29°N, 114.01°W
Report Text: CYYC 280532Z 36009KT 3SM -SN OVC015 M14/M16 A2967 RMK SN3SC5 SLP116
Loading
Personal Weather Stations






























Interactive Weather Map New forecast layout! Learn more

10-Day Weather Forecast

Advertisements
Track Severe Weather on mobile